Time;durP1;ratioP1;P1;durP2;ratioP2;P2;SDS_P1;SDS_P2;PMS_P1;PMS_P2;Temp;Humidity;BMP_temperature;BMP_pressure;BME280_temperature;BME280_humidity;BME280_pressure;Samples;Min_cycle;Max_cycle;Signal;HPM_P1;HPM_P2
2023/08/16 00:02:18;;;;;;;2.83;0.93;;;13.70;99.90;;;;;;5079103;28;20032;-67
2023/08/16 00:04:45;;;;;;;3.72;0.98;;;13.60;99.90;;;;;;5078636;28;20083;-67
2023/08/16 00:07:11;;;;;;;6.85;0.85;;;13.60;99.90;;;;;;5078994;28;20050;-67
2023/08/16 00:09:37;;;;;;;3.53;0.70;;;13.60;99.90;;;;;;5081576;28;20048;-67
2023/08/16 00:12:03;;;;;;;6.32;1.10;;;13.60;99.90;;;;;;5080423;28;20028;-67
2023/08/16 00:14:29;;;;;;;4.30;0.90;;;13.60;99.90;;;;;;5080801;28;20098;-67
2023/08/16 00:16:54;;;;;;;3.92;1.45;;;13.60;99.90;;;;;;5083005;28;20123;-67
2023/08/16 00:19:20;;;;;;;3.63;0.77;;;13.60;99.90;;;;;;5083673;28;20041;-67
2023/08/16 00:21:46;;;;;;;1.58;1.13;;;13.60;99.90;;;;;;5078290;28;20078;-67
2023/08/16 00:24:11;;;;;;;6.88;1.20;;;13.60;99.90;;;;;;5082162;28;20047;-67
2023/08/16 00:26:37;;;;;;;4.82;1.35;;;13.60;99.90;;;;;;5083725;28;20071;-67
2023/08/16 00:29:03;;;;;;;2.03;0.90;;;13.50;99.90;;;;;;5080985;28;20036;-67
2023/08/16 00:31:29;;;;;;;2.05;1.40;;;13.60;99.90;;;;;;5083884;28;20569;-67
2023/08/16 00:33:54;;;;;;;2.28;1.25;;;13.50;99.90;;;;;;5075229;28;20140;-67
2023/08/16 00:36:20;;;;;;;1.75;1.65;;;13.50;99.90;;;;;;5077175;28;20131;-67
2023/08/16 00:38:46;;;;;;;2.17;1.52;;;13.50;99.90;;;;;;5077419;28;20086;-67
2023/08/16 00:41:12;;;;;;;1.85;1.20;;;13.40;99.90;;;;;;5081750;28;20040;-67
2023/08/16 00:43:38;;;;;;;4.65;1.40;;;13.30;99.90;;;;;;5079376;28;20553;-67
2023/08/16 00:46:07;;;;;;;4.20;1.63;;;13.30;99.90;;;;;;5069414;28;20083;-67
2023/08/16 00:48:34;;;;;;;2.88;1.10;;;13.20;99.90;;;;;;5066549;28;20073;-67
2023/08/16 00:51:01;;;;;;;5.07;1.08;;;13.20;99.90;;;;;;5064951;28;20037;-67
2023/08/16 00:53:30;;;;;;;5.40;0.80;;;13.20;99.90;;;;;;5048827;28;20547;-67
2023/08/16 00:55:57;;;;;;;2.75;1.13;;;13.10;99.90;;;;;;5067901;28;20142;-67
2023/08/16 00:58:22;;;;;;;2.47;0.80;;;13.10;99.90;;;;;;5067930;28;20040;-67
2023/08/16 01:00:48;;;;;;;4.40;1.25;;;13.10;99.90;;;;;;5064321;28;20386;-67
2023/08/16 01:03:14;;;;;;;2.35;1.00;;;13.10;99.90;;;;;;5068736;28;20029;-67
2023/08/16 01:05:40;;;;;;;2.03;0.90;;;13.10;99.90;;;;;;5065211;28;20111;-67
2023/08/16 01:08:06;;;;;;;3.65;1.20;;;12.90;99.90;;;;;;5065546;28;20063;-67
2023/08/16 01:10:58;;;;;;;2.15;1.10;;;12.90;99.90;;;;;;5062076;28;20033;-67
2023/08/16 01:13:41;;;;;;;3.03;1.15;;;12.90;99.90;;;;;;5067398;28;20036;-67
2023/08/16 01:16:08;;;;;;;2.90;1.58;;;13.00;99.90;;;;;;5065110;28;20399;-66
2023/08/16 01:18:37;;;;;;;3.90;1.40;;;13.00;99.90;;;;;;5066820;28;20044;-66
2023/08/16 01:21:05;;;;;;;2.80;1.30;;;13.00;99.90;;;;;;5064316;28;20040;-67
2023/08/16 01:23:37;;;;;;;4.72;1.52;;;13.10;99.90;;;;;;5064814;28;20040;-67
2023/08/16 01:26:24;;;;;;;2.75;0.98;;;13.10;99.90;;;;;;5067978;28;20075;-67
2023/08/16 01:28:50;;;;;;;3.22;0.88;;;13.10;99.90;;;;;;5063370;28;20068;-67
2023/08/16 01:31:16;;;;;;;1.38;1.00;;;13.00;99.90;;;;;;5065136;28;20513;-67
2023/08/16 01:33:42;;;;;;;2.50;1.33;;;13.00;99.90;;;;;;5063806;28;20036;-67
2023/08/16 01:36:08;;;;;;;5.38;1.25;;;12.90;99.90;;;;;;5060855;28;20103;-67
2023/08/16 01:38:33;;;;;;;2.15;1.38;;;12.90;99.90;;;;;;5064944;28;20166;-67
2023/08/16 01:41:15;;;;;;;2.45;1.60;;;12.90;99.90;;;;;;5060877;28;20079;-67
2023/08/16 01:43:43;;;;;;;5.00;1.45;;;12.90;99.90;;;;;;5069804;28;20036;-67
2023/08/16 01:46:10;;;;;;;5.57;1.77;;;12.90;99.90;;;;;;5064880;28;20098;-67
2023/08/16 01:48:37;;;;;;;3.20;1.52;;;12.90;99.90;;;;;;5064658;28;20072;-67
2023/08/16 01:51:04;;;;;;;2.38;1.38;;;12.90;99.90;;;;;;5063570;28;20045;-66
2023/08/16 01:53:29;;;;;;;6.53;2.47;;;12.90;99.90;;;;;;5064038;28;20056;-67
2023/08/16 01:55:55;;;;;;;2.65;1.13;;;12.90;99.90;;;;;;5062762;28;20036;-66
2023/08/16 01:58:21;;;;;;;2.03;1.35;;;12.90;99.90;;;;;;5063631;28;20119;-67
2023/08/16 02:00:46;;;;;;;2.00;1.50;;;12.90;99.90;;;;;;5067591;28;20040;-67
2023/08/16 02:03:12;;;;;;;1.70;1.60;;;12.80;99.90;;;;;;5063881;28;20041;-67
2023/08/16 02:05:38;;;;;;;2.97;1.90;;;12.80;99.90;;;;;;5063889;28;20051;-67
2023/08/16 02:08:04;;;;;;;2.05;1.00;;;12.80;99.90;;;;;;5065049;28;20031;-67
2023/08/16 02:10:29;;;;;;;1.42;1.33;;;12.90;99.90;;;;;;5064627;28;20036;-67
2023/08/16 02:12:55;;;;;;;3.65;1.30;;;12.80;99.90;;;;;;5079523;28;20376;-66
2023/08/16 02:15:20;;;;;;;2.47;1.30;;;12.90;99.90;;;;;;5064673;28;20044;-67
2023/08/16 02:17:46;;;;;;;3.13;1.30;;;12.80;99.90;;;;;;5068507;28;20042;-67
2023/08/16 02:20:12;;;;;;;5.00;1.65;;;12.70;99.90;;;;;;5065818;28;20083;-67
2023/08/16 02:22:39;;;;;;;3.95;2.10;;;12.70;99.90;;;;;;5067458;28;20093;-67
2023/08/16 02:25:05;;;;;;;3.72;2.20;;;12.60;99.90;;;;;;5064658;28;20053;-67
2023/08/16 02:27:32;;;;;;;1.83;1.20;;;12.60;99.90;;;;;;5062398;28;20704;-67
2023/08/16 02:29:58;;;;;;;3.17;1.30;;;12.60;99.90;;;;;;5050758;28;20127;-67
2023/08/16 02:32:24;;;;;;;1.67;1.40;;;12.60;99.90;;;;;;5060536;28;20123;-67
2023/08/16 02:34:49;;;;;;;1.70;1.10;;;12.50;99.90;;;;;;5063641;28;20063;-66
2023/08/16 02:37:15;;;;;;;2.05;1.00;;;12.60;99.90;;;;;;5066370;28;20026;-66
2023/08/16 02:39:40;;;;;;;4.80;1.30;;;12.60;99.90;;;;;;5061493;28;20029;-67
2023/08/16 02:42:06;;;;;;;2.45;1.35;;;12.60;99.90;;;;;;5066240;28;20063;-67
2023/08/16 02:44:31;;;;;;;6.28;1.17;;;12.60;99.90;;;;;;5042329;28;20139;-67
2023/08/16 02:46:57;;;;;;;2.08;1.88;;;12.70;99.90;;;;;;5064144;28;20086;-67
2023/08/16 02:49:22;;;;;;;4.72;1.63;;;12.60;99.90;;;;;;5064599;28;20040;-67
2023/08/16 02:51:48;;;;;;;4.10;1.50;;;12.70;99.90;;;;;;5065294;28;20556;-67
2023/08/16 02:54:14;;;;;;;2.70;1.20;;;12.60;99.90;;;;;;5064287;28;20048;-66
2023/08/16 02:56:40;;;;;;;5.93;1.40;;;12.60;99.90;;;;;;5063425;28;20482;-66
2023/08/16 02:59:09;;;;;;;4.63;1.58;;;12.50;99.90;;;;;;5063946;28;20094;-66
2023/08/16 03:01:34;;;;;;;2.38;1.27;;;12.60;99.90;;;;;;5066102;28;20099;-67
2023/08/16 03:04:00;;;;;;;1.98;1.25;;;12.60;99.90;;;;;;5062832;28;20044;-67
2023/08/16 03:06:25;;;;;;;3.65;1.30;;;12.50;99.90;;;;;;5061898;28;20568;-67
2023/08/16 03:08:51;;;;;;;4.63;1.42;;;12.50;99.90;;;;;;5063553;28;20040;-67
2023/08/16 03:11:16;;;;;;;1.40;1.30;;;12.40;99.90;;;;;;5061340;28;20048;-67
2023/08/16 03:13:42;;;;;;;3.08;1.42;;;12.50;99.90;;;;;;5061747;28;20060;-67
2023/08/16 03:16:07;;;;;;;2.40;1.20;;;12.50;99.90;;;;;;5063535;28;20036;-67
2023/08/16 03:18:33;;;;;;;2.13;1.40;;;12.50;99.90;;;;;;5063018;28;20078;-67
2023/08/16 03:20:59;;;;;;;4.10;1.63;;;12.50;99.90;;;;;;5063997;28;20047;-66
2023/08/16 03:23:24;;;;;;;1.30;1.20;;;12.50;99.90;;;;;;5063136;28;20051;-67
2023/08/16 03:25:50;;;;;;;3.33;1.52;;;12.50;99.90;;;;;;5063065;28;20071;-67
2023/08/16 03:28:15;;;;;;;4.35;2.15;;;12.40;99.90;;;;;;5061664;28;20516;-67
2023/08/16 03:30:41;;;;;;;2.88;2.10;;;12.40;99.90;;;;;;5060656;28;20115;-67
2023/08/16 03:33:07;;;;;;;4.13;2.00;;;12.40;99.90;;;;;;5061353;28;20051;-66
2023/08/16 03:35:32;;;;;;;5.80;2.33;;;12.40;99.90;;;;;;5063094;28;20040;-67
2023/08/16 03:37:58;;;;;;;10.63;2.28;;;12.40;99.90;;;;;;5064415;28;20040;-67
2023/08/16 03:40:23;;;;;;;7.22;1.80;;;12.40;99.90;;;;;;5060719;28;20042;-67
2023/08/16 03:42:49;;;;;;;6.25;2.47;;;12.50;99.90;;;;;;5063309;28;20060;-67
2023/08/16 03:45:14;;;;;;;3.38;2.80;;;12.50;99.90;;;;;;5063836;28;20040;-67
2023/08/16 03:47:40;;;;;;;2.22;2.00;;;12.50;99.90;;;;;;5062815;28;20028;-67
2023/08/16 03:50:07;;;;;;;6.93;3.20;;;12.50;99.90;;;;;;5060845;28;20076;-67
2023/08/16 03:52:32;;;;;;;2.85;2.65;;;12.60;99.90;;;;;;5089533;28;20131;-67
2023/08/16 03:54:58;;;;;;;5.55;3.50;;;12.60;99.90;;;;;;5060089;28;20132;-67
2023/08/16 03:57:23;;;;;;;5.13;3.95;;;12.60;99.90;;;;;;5046158;28;20036;-67
2023/08/16 03:59:52;;;;;;;5.15;4.10;;;12.70;99.90;;;;;;5059583;28;20029;-67
2023/08/16 04:02:21;;;;;;;5.43;3.45;;;12.80;99.90;;;;;;5057934;28;20108;-67
2023/08/16 04:04:52;;;;;;;5.55;3.28;;;12.80;99.90;;;;;;5055156;28;20135;-66
2023/08/16 04:07:18;;;;;;;4.18;3.50;;;12.80;99.90;;;;;;5059534;28;20135;-67
2023/08/16 04:09:43;;;;;;;3.95;3.55;;;12.80;99.90;;;;;;5065927;28;20551;-67
2023/08/16 04:12:09;;;;;;;4.60;3.95;;;12.90;99.90;;;;;;5059191;28;20040;-67
2023/08/16 04:14:34;;;;;;;5.30;3.65;;;13.00;99.90;;;;;;5061327;28;20032;-67
2023/08/16 04:17:00;;;;;;;4.07;3.67;;;13.00;99.90;;;;;;5060530;28;20118;-67
2023/08/16 04:19:25;;;;;;;3.67;3.38;;;13.00;99.90;;;;;;5090861;28;20364;-67
2023/08/16 04:21:51;;;;;;;4.85;3.42;;;13.00;99.90;;;;;;5059363;28;20089;-67
2023/08/16 04:24:17;;;;;;;3.85;3.45;;;13.00;99.90;;;;;;5047449;28;20094;-67
2023/08/16 04:26:43;;;;;;;3.95;3.55;;;13.10;99.90;;;;;;5061528;28;20055;-67
2023/08/16 04:29:09;;;;;;;3.40;3.10;;;13.10;99.90;;;;;;5067093;28;20494;-67
2023/08/16 04:31:35;;;;;;;4.97;3.88;;;13.00;99.90;;;;;;5062267;28;20040;-67
2023/08/16 04:34:00;;;;;;;5.93;3.65;;;13.00;99.90;;;;;;5063754;28;20033;-67
2023/08/16 04:36:26;;;;;;;5.40;3.33;;;13.00;99.90;;;;;;5063931;28;20051;-67
2023/08/16 04:38:51;;;;;;;3.90;3.38;;;13.10;99.90;;;;;;5064722;28;20394;-67
2023/08/16 04:41:17;;;;;;;5.20;2.95;;;13.10;99.90;;;;;;5092899;27;20068;-67
2023/08/16 04:43:43;;;;;;;5.55;3.25;;;13.10;99.90;;;;;;5066673;28;20032;-67
2023/08/16 04:46:08;;;;;;;6.90;3.30;;;13.10;99.90;;;;;;5066943;28;20091;-67
2023/08/16 04:48:34;;;;;;;7.97;3.00;;;13.20;99.90;;;;;;5067682;28;20040;-67
2023/08/16 04:50:59;;;;;;;10.52;2.60;;;13.10;99.90;;;;;;5065036;28;20032;-67
2023/08/16 04:53:25;;;;;;;4.38;2.58;;;13.10;99.90;;;;;;5064368;28;20170;-67
2023/08/16 04:55:51;;;;;;;5.38;3.05;;;13.10;99.90;;;;;;5065324;28;20102;-67
2023/08/16 04:58:16;;;;;;;5.32;3.78;;;13.00;99.90;;;;;;5065852;28;20024;-67
2023/08/16 05:00:42;;;;;;;4.68;3.08;;;13.10;99.90;;;;;;5065682;28;20482;-67
2023/08/16 05:03:07;;;;;;;5.07;2.58;;;13.10;99.90;;;;;;5063083;28;20368;-67
2023/08/16 05:05:33;;;;;;;5.38;2.47;;;13.10;99.90;;;;;;5066119;28;20041;-67
2023/08/16 05:07:59;;;;;;;3.00;2.00;;;13.10;99.90;;;;;;5063987;28;20084;-67
2023/08/16 05:10:24;;;;;;;8.55;2.45;;;13.30;99.90;;;;;;5065331;28;20102;-67
2023/08/16 05:12:50;;;;;;;2.85;2.13;;;13.30;99.90;;;;;;5068122;28;20096;-67
2023/08/16 05:15:17;;;;;;;3.75;2.17;;;13.40;99.90;;;;;;5063000;28;20044;-67
2023/08/16 05:17:42;;;;;;;4.85;2.00;;;13.60;99.90;;;;;;5064994;28;20056;-67
2023/08/16 05:20:09;;;;;;;4.85;2.40;;;14.20;99.90;;;;;;5062010;28;21021;-67
2023/08/16 05:22:34;;;;;;;3.60;2.20;;;15.00;99.90;;;;;;5064241;28;20041;-67
2023/08/16 05:25:00;;;;;;;2.67;1.67;;;16.10;99.90;;;;;;5067405;28;20044;-67
2023/08/16 05:27:26;;;;;;;2.65;1.73;;;17.50;99.90;;;;;;5062115;28;20063;-67
2023/08/16 05:29:52;;;;;;;2.47;1.40;;;19.00;99.90;;;;;;5064658;28;20041;-66
2023/08/16 05:32:17;;;;;;;3.53;1.30;;;20.40;99.90;;;;;;5065977;28;20123;-67
2023/08/16 05:34:43;;;;;;;2.28;1.45;;;21.60;99.90;;;;;;5064103;28;21681;-67
2023/08/16 05:37:09;;;;;;;1.67;1.20;;;22.50;99.90;;;;;;5059661;28;20116;-67
2023/08/16 05:39:35;;;;;;;5.32;1.40;;;23.50;99.90;;;;;;5058718;28;20094;-67
2023/08/16 05:42:01;;;;;;;3.35;1.15;;;24.00;99.90;;;;;;5063651;28;20033;-66
2023/08/16 05:44:26;;;;;;;3.85;1.38;;;24.90;99.90;;;;;;5065160;28;20048;-67
2023/08/16 05:46:52;;;;;;;2.17;1.27;;;25.00;99.90;;;;;;5062037;28;20039;-67
2023/08/16 05:49:18;;;;;;;2.47;1.13;;;25.00;99.90;;;;;;5063659;28;20048;-67
2023/08/16 05:51:43;;;;;;;2.10;1.50;;;25.70;99.90;;;;;;5062209;28;20044;-67
2023/08/16 05:54:09;;;;;;;2.03;1.17;;;26.30;99.90;;;;;;5065153;28;20074;-67
2023/08/16 05:56:35;;;;;;;2.25;1.40;;;26.90;99.90;;;;;;5059112;28;20089;-67
2023/08/16 05:59:02;;;;;;;2.67;1.55;;;26.80;99.90;;;;;;5058246;28;20102;-67
2023/08/16 06:01:28;;;;;;;4.88;1.60;;;26.50;99.90;;;;;;5055358;28;20041;-67
2023/08/16 06:03:53;;;;;;;4.40;2.22;;;26.40;99.90;;;;;;5059640;28;20068;-66
2023/08/16 06:06:19;;;;;;;3.92;1.83;;;26.30;99.90;;;;;;5052748;28;20065;-66
2023/08/16 06:08:45;;;;;;;2.78;2.22;;;25.60;99.90;;;;;;5056706;28;20051;-66
2023/08/16 06:11:10;;;;;;;3.85;2.55;;;24.80;99.90;;;;;;5060697;28;20044;-66
2023/08/16 06:13:36;;;;;;;4.88;1.98;;;23.80;99.90;;;;;;5057064;28;20138;-66
2023/08/16 06:16:02;;;;;;;5.97;2.30;;;23.00;99.90;;;;;;5051348;28;20040;-66
2023/08/16 06:18:27;;;;;;;3.08;2.10;;;22.40;99.90;;;;;;5061747;28;20072;-66
2023/08/16 06:20:53;;;;;;;7.45;2.42;;;21.60;99.90;;;;;;5065223;28;20041;-66
2023/08/16 06:23:18;;;;;;;4.07;2.30;;;21.40;99.90;;;;;;5060871;28;20036;-66
2023/08/16 06:25:44;;;;;;;5.57;2.08;;;20.90;99.90;;;;;;5060736;28;20040;-66
2023/08/16 06:28:10;;;;;;;5.15;2.60;;;20.60;99.90;;;;;;5061330;28;20033;-66
2023/08/16 06:30:36;;;;;;;5.60;2.20;;;20.50;99.90;;;;;;5061602;28;20039;-66
2023/08/16 06:33:02;;;;;;;4.55;2.72;;;20.50;99.90;;;;;;5093070;28;20679;-66
2023/08/16 06:35:27;;;;;;;2.85;1.95;;;20.20;99.90;;;;;;5061430;28;20051;-66
2023/08/16 06:37:53;;;;;;;4.47;2.28;;;20.10;99.90;;;;;;5060322;28;20041;-66
2023/08/16 06:40:19;;;;;;;4.55;2.47;;;20.20;99.90;;;;;;5039951;28;20048;-66
2023/08/16 06:42:44;;;;;;;3.83;2.42;;;20.20;99.90;;;;;;5061295;28;20397;-66
2023/08/16 06:45:10;;;;;;;6.88;2.40;;;20.00;99.90;;;;;;5057391;28;20110;-66
2023/08/16 06:47:35;;;;;;;4.40;2.40;;;19.80;99.90;;;;;;5054178;28;20105;-66
2023/08/16 06:50:01;;;;;;;2.83;1.92;;;19.80;99.90;;;;;;5061155;28;20479;-67
2023/08/16 06:52:27;;;;;;;4.72;2.75;;;19.70;99.90;;;;;;5060368;28;20050;-66
2023/08/16 06:54:53;;;;;;;3.70;2.08;;;19.60;99.90;;;;;;5059689;28;20041;-66
2023/08/16 06:57:19;;;;;;;5.40;3.05;;;19.60;99.90;;;;;;5061652;28;20051;-66
2023/08/16 06:59:45;;;;;;;4.18;2.35;;;19.60;99.90;;;;;;5057515;28;20458;-66
2023/08/16 07:02:11;;;;;;;4.60;2.90;;;19.60;99.90;;;;;;5063727;28;20409;-66
2023/08/16 07:04:38;;;;;;;3.65;2.60;;;19.60;99.90;;;;;;5060103;28;20066;-66
2023/08/16 07:07:05;;;;;;;5.10;2.72;;;19.70;99.90;;;;;;5057481;28;20045;-66
2023/08/16 07:09:31;;;;;;;6.00;2.50;;;19.80;99.90;;;;;;5058299;28;20044;-66
2023/08/16 07:11:57;;;;;;;3.55;2.50;;;20.20;99.90;;;;;;5060589;28;20047;-66
2023/08/16 07:14:28;;;;;;;4.30;2.47;;;20.60;99.90;;;;;;5060587;28;20048;-68
2023/08/16 07:16:55;;;;;;;4.13;2.20;;;20.90;99.90;;;;;;5058567;28;20043;-66
2023/08/16 07:19:21;;;;;;;4.35;2.30;;;21.10;99.90;;;;;;5057747;28;20037;-67
2023/08/16 07:21:48;;;;;;;4.00;2.13;;;21.20;99.90;;;;;;5056170;28;20041;-66
2023/08/16 07:24:13;;;;;;;7.60;2.45;;;21.20;99.90;;;;;;5059139;28;20041;-66
2023/08/16 07:26:39;;;;;;;4.03;2.35;;;21.10;99.90;;;;;;5059402;28;20405;-66
2023/08/16 07:29:05;;;;;;;5.45;2.05;;;20.90;99.90;;;;;;5056380;28;20036;-66
2023/08/16 07:31:30;;;;;;;4.00;2.10;;;21.00;99.90;;;;;;5051935;28;20041;-66
2023/08/16 07:33:56;;;;;;;5.03;2.30;;;21.00;99.90;;;;;;5055389;28;20131;-66
2023/08/16 07:36:22;;;;;;;4.35;2.40;;;21.20;99.90;;;;;;5053615;28;20094;-66
2023/08/16 07:38:47;;;;;;;10.40;3.20;;;21.10;99.90;;;;;;5055728;28;20036;-66
2023/08/16 07:41:13;;;;;;;6.05;3.10;;;20.90;99.90;;;;;;5057433;28;20044;-66
2023/08/16 07:43:39;;;;;;;5.47;2.63;;;20.90;99.90;;;;;;5056662;28;20556;-66
2023/08/16 07:46:04;;;;;;;6.03;2.85;;;21.00;99.90;;;;;;5054114;28;20114;-66
2023/08/16 07:48:30;;;;;;;4.53;2.30;;;21.00;99.90;;;;;;5060624;28;20402;-66
2023/08/16 07:50:56;;;;;;;4.28;2.35;;;21.00;99.90;;;;;;5056449;28;20036;-66
2023/08/16 07:53:24;;;;;;;6.07;3.30;;;21.10;99.90;;;;;;5050162;28;20049;-66
2023/08/16 07:55:50;;;;;;;6.78;3.13;;;21.10;99.90;;;;;;5086181;27;20044;-66
2023/08/16 07:58:15;;;;;;;6.22;3.25;;;21.00;99.90;;;;;;5055702;28;20302;-67
2023/08/16 08:00:48;;;;;;;4.20;2.63;;;20.90;99.90;;;;;;5058096;28;20047;-67
2023/08/16 08:03:14;;;;;;;6.70;2.92;;;21.00;99.90;;;;;;5051653;28;20048;-66
2023/08/16 08:05:39;;;;;;;3.05;2.22;;;20.90;99.90;;;;;;5055748;28;20032;-66
2023/08/16 08:08:06;;;;;;;8.95;2.70;;;21.20;99.90;;;;;;5052735;28;20033;-66
2023/08/16 08:10:31;;;;;;;4.70;1.77;;;21.40;99.90;;;;;;5052044;28;20075;-66
2023/08/16 08:12:58;;;;;;;5.05;1.55;;;21.70;99.90;;;;;;5057690;28;20171;-66
2023/08/16 08:15:23;;;;;;;3.05;1.40;;;21.90;99.90;;;;;;5049625;28;20477;-66
2023/08/16 08:17:49;;;;;;;5.38;1.30;;;22.30;99.90;;;;;;5051296;28;20037;-66
2023/08/16 08:20:15;;;;;;;6.18;1.42;;;22.70;99.90;;;;;;5056300;28;20047;-66
2023/08/16 08:22:40;;;;;;;2.25;0.60;;;23.10;99.90;;;;;;5051085;28;20032;-66
2023/08/16 08:25:07;;;;;;;3.03;0.65;;;23.20;99.90;;;;;;5056251;28;20071;-66
2023/08/16 08:27:33;;;;;;;3.70;0.93;;;23.40;99.90;;;;;;5051635;28;20051;-66
2023/08/16 08:29:59;;;;;;;3.03;0.68;;;23.50;99.90;;;;;;5061050;28;20041;-66
2023/08/16 08:32:24;;;;;;;3.45;0.82;;;23.70;99.90;;;;;;5053090;28;20044;-67
2023/08/16 08:34:50;;;;;;;3.05;0.80;;;23.80;99.90;;;;;;5057606;28;20059;-67
2023/08/16 08:37:15;;;;;;;4.07;1.00;;;23.70;99.90;;;;;;5063160;28;20130;-66
2023/08/16 08:39:41;;;;;;;3.13;0.60;;;23.50;99.90;;;;;;5062496;28;20494;-67
2023/08/16 08:42:09;;;;;;;1.83;0.40;;;23.50;99.90;;;;;;5063324;28;20075;-66
2023/08/16 08:44:37;;;;;;;3.05;0.55;;;23.70;99.90;;;;;;5057875;28;20045;-66
2023/08/16 08:47:05;;;;;;;1.25;0.40;;;23.90;99.90;;;;;;5054447;28;20044;-66
2023/08/16 08:49:34;;;;;;;2.75;0.60;;;23.90;99.90;;;;;;5089165;27;20482;-66
2023/08/16 08:52:04;;;;;;;3.03;0.63;;;23.90;99.90;;;;;;5061489;28;20048;-66
2023/08/16 08:54:31;;;;;;;1.50;0.40;;;24.10;99.90;;;;;;5053692;28;20048;-66
2023/08/16 08:57:02;;;;;;;1.90;0.60;;;24.20;99.90;;;;;;5061368;28;20040;-66
2023/08/16 08:59:30;;;;;;;3.85;0.88;;;24.40;99.90;;;;;;5060963;28;20663;-66
2023/08/16 09:01:58;;;;;;;2.28;0.85;;;24.50;99.90;;;;;;5057821;28;20044;-66
2023/08/16 09:04:25;;;;;;;2.20;0.50;;;24.50;99.90;;;;;;5052567;28;20044;-67
2023/08/16 09:06:51;;;;;;;4.57;0.45;;;24.40;99.90;;;;;;5058669;28;20044;-67
2023/08/16 09:09:18;;;;;;;3.85;0.80;;;24.40;99.90;;;;;;5055752;28;20047;-67
2023/08/16 09:11:43;;;;;;;1.65;0.70;;;24.50;99.90;;;;;;5058687;28;20148;-67
2023/08/16 09:14:09;;;;;;;3.53;0.82;;;24.40;99.90;;;;;;5058027;28;20045;-67
2023/08/16 09:16:35;;;;;;;1.05;0.50;;;24.50;99.90;;;;;;5058381;28;20532;-67
2023/08/16 09:19:00;;;;;;;1.65;0.40;;;24.70;99.90;;;;;;5056362;28;20678;-67
2023/08/16 09:21:28;;;;;;;4.88;0.95;;;24.10;99.90;;;;;;5051894;28;20706;-66
2023/08/16 09:23:58;;;;;;;3.17;0.70;;;24.10;99.90;;;;;;5058662;28;20068;-67
2023/08/16 09:26:26;;;;;;;2.17;0.95;;;24.30;99.90;;;;;;5063822;28;20378;-66
2023/08/16 09:29:05;;;;;;;0.98;0.40;;;24.30;99.90;;;;;;5056761;28;20175;-67
2023/08/16 09:31:37;;;;;;;0.98;0.32;;;23.90;99.90;;;;;;5052947;28;20109;-67
2023/08/16 09:34:04;;;;;;;1.95;0.47;;;24.10;99.90;;;;;;5052629;28;20036;-66
2023/08/16 09:36:30;;;;;;;1.70;0.47;;;24.30;99.90;;;;;;5053811;28;20049;-67
2023/08/16 09:39:05;;;;;;;2.22;0.38;;;24.40;99.90;;;;;;5052762;28;20068;-66
2023/08/16 09:41:31;;;;;;;1.73;0.60;;;24.30;99.90;;;;;;5055935;28;20048;-66
2023/08/16 09:44:04;;;;;;;1.10;0.40;;;24.50;99.90;;;;;;5049957;28;20044;-66
2023/08/16 09:46:30;;;;;;;1.13;0.45;;;24.40;99.90;;;;;;5057544;28;20067;-66
2023/08/16 09:49:07;;;;;;;3.28;0.50;;;24.60;99.90;;;;;;5053547;28;20046;-66
2023/08/16 09:51:37;;;;;;;1.35;0.32;;;24.60;99.90;;;;;;5053388;28;20393;-66
2023/08/16 09:54:17;;;;;;;1.42;0.43;;;24.80;99.90;;;;;;5054737;28;20478;-66
2023/08/16 09:56:43;;;;;;;1.45;0.20;;;24.80;99.90;;;;;;5060860;28;20513;-66
2023/08/16 09:59:13;;;;;;;1.08;0.20;;;25.00;99.90;;;;;;5054346;28;20561;-66
2023/08/16 10:01:39;;;;;;;1.70;0.40;;;25.10;99.90;;;;;;5056685;28;20428;-66
2023/08/16 10:04:07;;;;;;;2.15;0.40;;;25.00;99.90;;;;;;5059330;28;20047;-66
2023/08/16 10:06:34;;;;;;;1.15;0.25;;;25.00;99.90;;;;;;5056472;28;20036;-66
2023/08/16 10:09:02;;;;;;;2.53;0.40;;;25.20;99.90;;;;;;5057889;28;20103;-66
2023/08/16 10:11:28;;;;;;;1.67;0.40;;;24.90;99.90;;;;;;5059927;28;20080;-66
2023/08/16 10:13:54;;;;;;;1.05;0.20;;;25.00;99.90;;;;;;5081793;27;20087;-66
2023/08/16 10:16:22;;;;;;;3.78;0.52;;;25.00;99.90;;;;;;5058793;28;20566;-66
2023/08/16 10:18:50;;;;;;;2.30;0.57;;;24.90;99.90;;;;;;5056694;28;20514;-66
2023/08/16 10:21:17;;;;;;;2.30;0.38;;;25.00;99.90;;;;;;5058050;28;20051;-66
2023/08/16 10:23:44;;;;;;;4.25;0.88;;;25.20;99.90;;;;;;5061092;28;20521;-66
2023/08/16 10:26:14;;;;;;;0.82;0.40;;;25.20;99.90;;;;;;5091948;27;20044;-66
2023/08/16 10:28:44;;;;;;;2.50;0.45;;;25.30;99.90;;;;;;5056946;28;20045;-66
2023/08/16 10:31:11;;;;;;;3.25;0.50;;;25.20;99.90;;;;;;5053115;28;20136;-67
2023/08/16 10:33:44;;;;;;;1.67;0.38;;;25.40;99.90;;;;;;5061388;28;20699;-66
2023/08/16 10:36:11;;;;;;;1.85;0.77;;;25.30;99.90;;;;;;5061471;28;20036;-66
2023/08/16 10:38:37;;;;;;;2.00;0.45;;;25.50;99.90;;;;;;5061600;28;20044;-66
2023/08/16 10:41:09;;;;;;;3.75;0.65;;;25.40;99.90;;;;;;5056633;28;20093;-66
2023/08/16 10:43:35;;;;;;;2.30;0.45;;;25.40;99.90;;;;;;5055922;28;20096;-66
2023/08/16 10:46:01;;;;;;;1.90;0.80;;;25.30;99.90;;;;;;5058889;28;20037;-66
2023/08/16 10:48:35;;;;;;;7.13;0.85;;;25.10;99.90;;;;;;5056380;28;20086;-67
2023/08/16 10:51:06;;;;;;;1.58;0.73;;;24.90;99.90;;;;;;5088317;28;20089;-66
2023/08/16 10:53:34;;;;;;;2.28;0.73;;;24.60;99.90;;;;;;5058155;28;20498;-66
2023/08/16 10:56:07;;;;;;;5.03;1.08;;;24.50;99.90;;;;;;5059175;28;20658;-66
2023/08/16 10:58:47;;;;;;;1.63;0.60;;;24.00;99.90;;;;;;5054589;28;20501;-66
2023/08/16 11:01:12;;;;;;;2.45;0.60;;;23.60;99.90;;;;;;5086522;28;20074;-66
2023/08/16 11:03:41;;;;;;;7.75;1.92;;;23.70;99.90;;;;;;5058551;28;20162;-66
2023/08/16 11:06:12;;;;;;;2.55;1.00;;;23.80;99.90;;;;;;5083722;28;21323;-66
2023/08/16 11:08:43;;;;;;;2.53;0.68;;;23.80;99.90;;;;;;5057380;28;20048;-66
2023/08/16 11:11:13;;;;;;;2.20;0.50;;;23.80;99.90;;;;;;5060279;28;20036;-66
2023/08/16 11:13:42;;;;;;;2.03;0.80;;;24.00;99.90;;;;;;5059157;28;20044;-66
2023/08/16 11:16:09;;;;;;;2.05;0.50;;;24.30;99.90;;;;;;5056711;28;20044;-66
2023/08/16 11:18:36;;;;;;;1.52;0.40;;;24.40;99.90;;;;;;5059299;28;20170;-66
2023/08/16 11:21:03;;;;;;;1.35;0.50;;;24.60;99.90;;;;;;5058367;28;20048;-67
2023/08/16 11:23:32;;;;;;;1.63;0.50;;;24.50;99.90;;;;;;5062112;28;20517;-66
2023/08/16 11:26:02;;;;;;;1.65;0.65;;;24.40;99.90;;;;;;5062595;28;20032;-66
2023/08/16 11:28:30;;;;;;;0.88;0.30;;;24.60;99.90;;;;;;5057373;28;20075;-66
2023/08/16 11:30:59;;;;;;;1.17;0.30;;;24.80;99.90;;;;;;5062129;28;20045;-66
2023/08/16 11:33:32;;;;;;;2.83;0.30;;;24.90;99.90;;;;;;5076511;28;20825;-66
2023/08/16 11:36:01;;;;;;;3.42;0.50;;;25.00;99.90;;;;;;5056312;28;20379;-66
2023/08/16 11:38:27;;;;;;;2.08;0.57;;;25.10;99.90;;;;;;5053963;28;21023;-66
2023/08/16 11:40:54;;;;;;;1.10;0.60;;;25.20;99.90;;;;;;5055230;28;20043;-67
2023/08/16 11:43:26;;;;;;;2.95;0.40;;;25.00;99.90;;;;;;5056623;28;20041;-66
2023/08/16 11:45:52;;;;;;;2.72;0.30;;;24.90;99.90;;;;;;5056596;28;20094;-66
2023/08/16 11:48:18;;;;;;;1.38;0.52;;;24.80;99.90;;;;;;5057364;28;20044;-66
2023/08/16 11:50:44;;;;;;;2.45;0.47;;;25.00;99.90;;;;;;5056036;28;20036;-66
2023/08/16 11:53:14;;;;;;;6.50;0.30;;;25.10;99.90;;;;;;5060169;28;20071;-66
2023/08/16 11:55:41;;;;;;;1.75;0.30;;;25.10;99.90;;;;;;5050489;28;20486;-67
2023/08/16 11:58:09;;;;;;;3.20;0.60;;;25.20;99.90;;;;;;5057426;28;20143;-66
2023/08/16 12:00:36;;;;;;;1.60;0.38;;;25.10;99.90;;;;;;5057798;28;20297;-66
2023/08/16 12:03:03;;;;;;;1.15;0.47;;;25.00;99.90;;;;;;5055433;28;20032;-67
2023/08/16 12:05:36;;;;;;;1.95;0.43;;;24.80;99.90;;;;;;5050306;28;20533;-66
2023/08/16 12:08:06;;;;;;;4.65;0.95;;;25.10;99.90;;;;;;5051772;28;20036;-67
2023/08/16 12:10:32;;;;;;;1.20;0.50;;;25.00;99.90;;;;;;5059746;28;20136;-66
2023/08/16 12:12:59;;;;;;;0.93;0.50;;;25.10;99.90;;;;;;5055799;28;20716;-66
2023/08/16 12:15:27;;;;;;;2.97;0.55;;;25.10;99.90;;;;;;5049108;28;20052;-66
2023/08/16 12:17:57;;;;;;;3.42;0.70;;;25.00;99.90;;;;;;5059099;28;20144;-67
2023/08/16 12:20:26;;;;;;;2.15;0.45;;;25.00;99.90;;;;;;5057997;28;20037;-66
2023/08/16 12:22:54;;;;;;;2.97;1.15;;;25.00;99.90;;;;;;5055190;28;20032;-67
2023/08/16 12:25:19;;;;;;;4.45;0.88;;;25.20;99.90;;;;;;5055521;28;20601;-66
2023/08/16 12:27:45;;;;;;;2.40;0.70;;;25.30;99.90;;;;;;5057285;28;21221;-66
2023/08/16 12:30:11;;;;;;;2.85;0.75;;;25.30;99.90;;;;;;5058041;28;20036;-66
2023/08/16 12:32:36;;;;;;;1.95;1.00;;;25.40;99.90;;;;;;5089038;28;20045;-66
2023/08/16 12:35:02;;;;;;;1.63;0.52;;;25.30;99.90;;;;;;5058984;28;20044;-67
2023/08/16 12:37:28;;;;;;;5.32;0.90;;;25.20;99.90;;;;;;5055827;28;20048;-66
2023/08/16 12:39:54;;;;;;;5.05;0.82;;;25.00;99.90;;;;;;5056143;28;20936;-66
2023/08/16 12:42:19;;;;;;;3.13;0.82;;;25.00;99.90;;;;;;5061817;28;20089;-67
2023/08/16 12:44:45;;;;;;;1.98;0.40;;;24.70;99.90;;;;;;5056496;28;20593;-66